createdAt,value
2022-10-10T00:01:14.813Z,21.00
2022-10-10T00:03:42.020Z,18.67
2022-10-10T00:06:09.197Z,12.48
2022-10-10T00:08:35.862Z,19.33
2022-10-10T00:11:02.390Z,14.13
2022-10-10T00:13:28.827Z,15.18
2022-10-10T00:15:55.246Z,15.98
2022-10-10T00:18:22.140Z,16.50
2022-10-10T00:20:51.727Z,20.33
2022-10-10T00:23:19.070Z,17.33
2022-10-10T00:25:45.466Z,22.00
2022-10-10T00:28:12.640Z,12.90
2022-10-10T00:30:39.661Z,14.43
2022-10-10T00:33:06.341Z,19.08
2022-10-10T00:35:32.759Z,14.80
2022-10-10T00:37:59.118Z,14.02
2022-10-10T00:40:25.822Z,13.77
2022-10-10T00:42:52.530Z,18.02
2022-10-10T00:45:39.626Z,15.65
2022-10-10T00:48:16.391Z,15.45
2022-10-10T00:50:52.409Z,17.63
2022-10-10T00:53:30.992Z,14.55
2022-10-10T00:55:57.896Z,17.27
2022-10-10T00:58:24.588Z,18.63
2022-10-10T01:00:52.368Z,12.43
2022-10-10T01:03:18.892Z,20.23
2022-10-10T01:05:47.537Z,12.98
2022-10-10T01:08:14.862Z,19.38
2022-10-10T01:11:20.141Z,17.83
2022-10-10T01:14:09.507Z,21.30
2022-10-10T01:16:55.091Z,15.10
2022-10-10T01:19:24.346Z,16.90
2022-10-10T01:22:09.609Z,12.68
2022-10-10T01:24:51.172Z,13.07
2022-10-10T01:27:47.650Z,18.50
2022-10-10T01:30:21.827Z,18.27
2022-10-10T01:32:54.402Z,13.40
2022-10-10T01:35:49.931Z,14.50
2022-10-10T01:38:39.018Z,18.60
2022-10-10T01:41:16.181Z,14.23
2022-10-10T01:43:42.945Z,13.20
2022-10-10T01:46:16.307Z,14.20
2022-10-10T01:48:50.126Z,18.48
2022-10-10T01:51:40.835Z,14.02
2022-10-10T01:54:24.427Z,18.30
2022-10-10T01:57:15.759Z,17.35
2022-10-10T02:00:09.066Z,18.02
2022-10-10T02:03:01.819Z,13.68
2022-10-10T02:05:28.146Z,16.48
2022-10-10T02:08:03.245Z,14.68
2022-10-10T02:10:37.400Z,16.92
2022-10-10T02:13:05.343Z,13.80
2022-10-10T02:15:41.224Z,13.00
2022-10-10T02:18:11.857Z,16.60
2022-10-10T02:20:39.569Z,15.25
2022-10-10T02:23:07.103Z,13.63
2022-10-10T02:25:39.092Z,20.90
2022-10-10T02:28:17.600Z,22.30
2022-10-10T02:30:46.898Z,22.38
2022-10-10T02:33:19.341Z,17.45
2022-10-10T02:35:50.186Z,12.45
2022-10-10T02:38:18.391Z,16.67
2022-10-10T02:40:47.605Z,18.08
2022-10-10T02:43:15.266Z,17.20
2022-10-10T02:45:43.925Z,16.52
2022-10-10T02:48:10.553Z,15.50
2022-10-10T02:50:37.587Z,13.45
2022-10-10T02:53:04.083Z,16.17
2022-10-10T02:55:30.458Z,18.08
2022-10-10T02:57:57.071Z,14.63
2022-10-10T03:00:23.402Z,15.48
2022-10-10T03:02:50.224Z,14.18
2022-10-10T03:05:16.836Z,14.20
2022-10-10T03:07:43.236Z,16.23
2022-10-10T03:10:10.772Z,13.63
2022-10-10T03:12:37.238Z,14.50
2022-10-10T03:15:09.188Z,18.90
2022-10-10T03:17:37.844Z,13.80
2022-10-10T03:20:05.024Z,17.35
2022-10-10T03:22:31.451Z,16.35
2022-10-10T03:24:57.785Z,17.15
2022-10-10T03:27:24.265Z,15.82
2022-10-10T03:29:50.663Z,20.15
2022-10-10T03:32:17.019Z,15.15
2022-10-10T03:34:43.427Z,17.77
2022-10-10T03:37:10.142Z,12.90
2022-10-10T03:39:36.539Z,17.48
2022-10-10T03:42:03.054Z,14.82
2022-10-10T03:44:29.397Z,14.63
2022-10-10T03:46:55.767Z,16.30
2022-10-10T03:49:22.300Z,15.50
2022-10-10T03:51:48.867Z,17.27
2022-10-10T03:54:15.254Z,13.65
2022-10-10T03:56:41.593Z,19.05
2022-10-10T03:59:08.174Z,19.00
2022-10-10T04:01:34.842Z,17.00
2022-10-10T04:04:01.479Z,15.93
2022-10-10T04:06:28.410Z,13.95
2022-10-10T04:08:54.933Z,18.70
2022-10-10T04:11:22.128Z,14.07
2022-10-10T04:13:48.670Z,17.98
2022-10-10T04:16:15.251Z,16.38
2022-10-10T04:18:41.743Z,13.30
2022-10-10T04:21:12.372Z,19.83
2022-10-10T04:23:40.533Z,15.15
2022-10-10T04:26:07.780Z,21.02
2022-10-10T04:28:34.419Z,18.50
2022-10-10T04:31:00.901Z,23.70
2022-10-10T04:33:27.239Z,14.65
2022-10-10T04:35:53.696Z,16.08
2022-10-10T04:38:21.343Z,25.55
2022-10-10T04:40:49.978Z,17.15
2022-10-10T04:43:16.772Z,16.95
2022-10-10T04:45:43.142Z,22.38
2022-10-10T04:48:09.484Z,23.55
2022-10-10T04:50:35.950Z,21.02
2022-10-10T04:53:02.588Z,27.23
2022-10-10T04:55:29.121Z,31.83
2022-10-10T04:57:55.588Z,23.45
2022-10-10T05:00:21.951Z,21.70
2022-10-10T05:02:48.638Z,20.13
2022-10-10T05:05:15.525Z,26.83
2022-10-10T05:07:42.068Z,17.92
2022-10-10T05:10:08.907Z,17.20
2022-10-10T05:12:35.461Z,23.80
2022-10-10T05:15:01.850Z,15.55
2022-10-10T05:17:28.231Z,17.00
2022-10-10T05:19:54.631Z,22.35
2022-10-10T05:22:20.999Z,19.98
2022-10-10T05:24:47.364Z,16.75
2022-10-10T05:27:13.759Z,15.85
2022-10-10T05:29:40.159Z,21.75
2022-10-10T05:32:10.054Z,18.08
2022-10-10T05:34:39.629Z,16.50
2022-10-10T05:37:06.043Z,15.43
2022-10-10T05:39:32.565Z,18.70
2022-10-10T05:41:59.072Z,16.45
2022-10-10T05:44:25.415Z,14.60
2022-10-10T05:46:51.777Z,20.58
2022-10-10T05:49:18.235Z,15.23
2022-10-10T05:51:44.659Z,24.17
2022-10-10T05:54:11.293Z,21.73
2022-10-10T05:56:37.858Z,15.20
2022-10-10T05:59:04.286Z,17.45
2022-10-10T06:01:30.865Z,20.42
2022-10-10T06:03:57.286Z,20.15
2022-10-10T06:06:25.364Z,15.70
2022-10-10T06:08:52.208Z,15.18
2022-10-10T06:11:20.490Z,15.35
2022-10-10T06:13:49.750Z,19.60
2022-10-10T06:16:16.755Z,22.98
2022-10-10T06:18:43.142Z,25.33
2022-10-10T06:21:11.644Z,17.85
2022-10-10T06:23:38.218Z,16.02
2022-10-10T06:26:04.650Z,22.95
2022-10-10T06:28:31.060Z,21.85
2022-10-10T06:31:01.946Z,17.23
2022-10-10T06:33:28.382Z,22.30
2022-10-10T06:35:55.106Z,19.80
2022-10-10T06:38:22.075Z,22.90
2022-10-10T06:40:48.491Z,16.33
2022-10-10T06:43:16.296Z,24.48
2022-10-10T06:45:45.884Z,20.38
2022-10-10T06:48:14.075Z,17.23
2022-10-10T06:50:40.486Z,20.42
2022-10-10T06:53:07.127Z,15.93
2022-10-10T06:55:33.498Z,22.23
2022-10-10T06:57:59.919Z,23.67
2022-10-10T07:00:26.622Z,17.17
2022-10-10T07:02:53.421Z,19.02
2022-10-10T07:05:20.047Z,15.35
2022-10-10T07:07:46.536Z,21.13
2022-10-10T07:10:14.909Z,21.48
2022-10-10T07:12:44.803Z,19.55
2022-10-10T07:17:38.717Z,17.67
2022-10-10T07:20:05.761Z,15.40
2022-10-10T07:22:32.235Z,16.45
2022-10-10T07:24:58.589Z,20.05
2022-10-10T07:27:24.977Z,17.08
2022-10-10T07:29:51.379Z,17.90
2022-10-10T07:32:17.856Z,16.52
2022-10-10T07:34:44.214Z,15.98
2022-10-10T07:37:10.630Z,15.35
2022-10-10T07:39:37.139Z,18.90
2022-10-10T07:42:03.763Z,15.40
2022-10-10T07:44:34.275Z,22.10
2022-10-10T07:47:00.991Z,19.63
2022-10-10T07:49:27.503Z,18.65
2022-10-10T07:51:58.590Z,18.13
2022-10-10T07:54:28.124Z,17.00
2022-10-10T07:56:54.608Z,19.13
2022-10-10T07:59:24.256Z,15.35
2022-10-10T08:01:51.313Z,16.23
2022-10-10T08:04:18.655Z,15.40
2022-10-10T08:06:45.049Z,15.77
2022-10-10T08:09:11.615Z,16.42
2022-10-10T08:11:38.150Z,17.65
2022-10-10T08:14:04.585Z,23.52
2022-10-10T08:16:31.051Z,19.15
2022-10-10T08:18:57.571Z,15.65
2022-10-10T08:21:24.083Z,14.57
2022-10-10T08:23:50.465Z,15.48
2022-10-10T08:26:18.168Z,16.60
2022-10-10T08:28:45.266Z,17.52
2022-10-10T08:31:17.252Z,19.48
2022-10-10T08:33:45.936Z,17.20
2022-10-10T08:36:15.482Z,13.73
2022-10-10T08:38:42.280Z,14.90
2022-10-10T08:41:34.933Z,16.10
2022-10-10T08:44:06.386Z,19.65
2022-10-10T08:46:41.045Z,19.42
2022-10-10T08:49:29.987Z,18.48
2022-10-10T08:52:05.277Z,13.30
2022-10-10T08:54:33.616Z,15.07
2022-10-10T08:57:03.431Z,18.90
2022-10-10T08:59:35.498Z,16.90
2022-10-10T09:02:50.284Z,17.85
2022-10-10T09:05:26.987Z,17.33
2022-10-10T09:07:56.316Z,17.83
2022-10-10T09:10:39.656Z,22.30
2022-10-10T09:13:12.807Z,16.60
2022-10-10T09:15:54.426Z,13.10
2022-10-10T09:18:32.856Z,16.08
2022-10-10T09:21:12.667Z,14.48
2022-10-10T09:23:49.081Z,16.67
2022-10-10T09:26:20.781Z,16.75
2022-10-10T09:29:15.826Z,15.18
2022-10-10T09:31:46.051Z,13.57
2022-10-10T09:36:45.046Z,16.48
2022-10-10T09:39:27.372Z,16.70
2022-10-10T09:42:01.732Z,14.07
2022-10-10T09:44:29.398Z,15.07
2022-10-10T09:46:56.229Z,12.05
2022-10-10T09:49:24.926Z,12.30
2022-10-10T09:51:52.016Z,12.35
2022-10-10T09:54:20.105Z,12.35
2022-10-10T09:56:58.033Z,11.15
2022-10-10T09:59:41.275Z,18.55
2022-10-10T10:02:25.258Z,11.88
2022-10-10T10:04:53.054Z,11.88
2022-10-10T10:07:21.030Z,11.48
2022-10-10T10:09:59.674Z,17.33
2022-10-10T10:12:36.818Z,11.85
2022-10-10T10:15:16.056Z,11.77
2022-10-10T10:17:42.676Z,11.90
2022-10-10T10:20:31.433Z,19.08
2022-10-10T10:22:57.879Z,11.85
2022-10-10T10:25:37.112Z,12.90
2022-10-10T10:28:14.932Z,15.33
2022-10-10T10:30:43.446Z,11.77
2022-10-10T10:33:18.665Z,13.43
2022-10-10T10:36:13.546Z,11.43
2022-10-10T10:38:39.971Z,12.40
2022-10-10T10:41:32.307Z,12.15
2022-10-10T10:44:14.764Z,11.98
2022-10-10T10:46:57.293Z,11.40
2022-10-10T10:50:08.618Z,11.55
2022-10-10T10:52:40.857Z,11.02
2022-10-10T10:55:33.234Z,15.40
2022-10-10T11:01:57.367Z,11.80
2022-10-10T11:05:17.267Z,11.30
2022-10-10T11:07:57.806Z,12.10
2022-10-10T11:10:35.154Z,13.57
2022-10-10T11:13:39.221Z,13.32
2022-10-10T11:16:46.792Z,12.95
2022-10-10T11:19:37.187Z,12.23
2022-10-10T11:22:13.883Z,13.52
2022-10-10T11:24:51.884Z,11.25
2022-10-10T11:27:39.228Z,11.25
2022-10-10T11:30:08.135Z,13.18
2022-10-10T11:32:48.530Z,13.75
2022-10-10T11:35:27.043Z,12.82
2022-10-10T11:38:01.343Z,11.52
2022-10-10T11:40:45.503Z,14.98
2022-10-10T11:43:19.593Z,12.70
2022-10-10T11:45:52.323Z,11.73
2022-10-10T11:48:35.536Z,10.52
2022-10-10T11:51:16.396Z,14.90
2022-10-10T11:53:45.777Z,16.27
2022-10-10T11:56:28.614Z,13.05
2022-10-10T11:59:01.861Z,15.80
2022-10-10T12:01:30.960Z,12.13
2022-10-10T12:03:57.536Z,17.17
2022-10-10T12:06:30.608Z,15.02
2022-10-10T12:09:03.688Z,16.45
2022-10-10T12:11:36.510Z,11.50
2022-10-10T12:14:07.263Z,13.80
2022-10-10T12:16:37.847Z,13.20
2022-10-10T12:19:07.091Z,12.10
2022-10-10T12:21:56.091Z,11.93
2022-10-10T12:24:24.213Z,11.85
2022-10-10T12:26:56.643Z,13.43
2022-10-10T12:30:01.618Z,13.20
2022-10-10T12:32:41.020Z,11.98
2022-10-10T12:35:29.335Z,13.25
2022-10-10T12:38:04.720Z,13.40
2022-10-10T12:40:32.893Z,15.75
2022-10-10T12:43:02.142Z,13.52
2022-10-10T12:45:28.532Z,13.13
2022-10-10T12:48:06.367Z,16.52
2022-10-10T12:50:39.749Z,15.15
2022-10-10T12:53:18.009Z,14.85
2022-10-10T12:55:51.872Z,13.07
2022-10-10T12:58:27.103Z,12.07
2022-10-10T13:00:57.909Z,16.27
2022-10-10T13:06:03.009Z,16.88
2022-10-10T13:08:30.586Z,15.15
2022-10-10T13:11:11.969Z,15.80
2022-10-10T13:13:40.421Z,15.00
2022-10-10T13:16:13.127Z,13.57
2022-10-10T13:18:52.598Z,14.07
2022-10-10T13:21:23.693Z,14.63
2022-10-10T13:26:44.875Z,12.73
2022-10-10T13:29:32.434Z,14.40
2022-10-10T13:32:23.995Z,13.68
2022-10-10T13:34:55.535Z,19.77
2022-10-10T13:37:22.885Z,18.13
2022-10-10T13:39:50.850Z,12.32
2022-10-10T13:42:39.714Z,13.93
2022-10-10T13:45:38.131Z,19.40
2022-10-10T13:48:04.445Z,13.40
2022-10-10T13:50:35.371Z,15.75
2022-10-10T13:53:27.147Z,15.07
2022-10-10T13:56:10.286Z,13.65
2022-10-10T13:58:56.188Z,17.35
2022-10-10T14:01:43.556Z,14.10
2022-10-10T14:04:12.916Z,18.17
2022-10-10T14:06:41.063Z,11.93
2022-10-10T14:09:15.778Z,16.60
2022-10-10T14:11:43.403Z,12.75
2022-10-10T14:14:17.632Z,17.45
2022-10-10T14:16:43.975Z,16.70
2022-10-10T14:19:19.412Z,15.73
2022-10-10T14:21:45.769Z,15.10
2022-10-10T14:24:12.182Z,17.65
2022-10-10T14:26:38.810Z,13.98
2022-10-10T14:29:10.443Z,14.95
2022-10-10T14:31:36.852Z,13.98
2022-10-10T14:34:03.284Z,13.05
2022-10-10T14:36:29.686Z,16.75
2022-10-10T14:38:56.108Z,16.83
2022-10-10T14:41:22.622Z,12.15
2022-10-10T14:43:49.003Z,13.02
2022-10-10T14:46:19.629Z,12.25
2022-10-10T14:48:46.876Z,14.10
2022-10-10T14:51:34.205Z,14.20
2022-10-10T14:54:11.870Z,12.27
2022-10-10T14:57:08.634Z,22.00
2022-10-10T14:59:49.254Z,17.35
2022-10-10T15:02:15.546Z,12.77
2022-10-10T15:04:42.102Z,15.55
2022-10-10T15:07:14.247Z,13.02
2022-10-10T15:09:51.523Z,13.88
2022-10-10T15:12:27.820Z,15.02
2022-10-10T15:14:54.214Z,13.38
2022-10-10T15:17:20.640Z,13.05
2022-10-10T15:19:47.012Z,16.95
2022-10-10T15:22:13.359Z,14.02
2022-10-10T15:24:39.719Z,14.60
2022-10-10T15:27:06.055Z,11.95
2022-10-10T15:29:32.539Z,12.18
2022-10-10T15:32:00.518Z,14.48
2022-10-10T15:34:27.228Z,16.50
2022-10-10T15:36:56.658Z,22.17
2022-10-10T15:39:23.193Z,13.38
2022-10-10T15:41:49.557Z,16.30
2022-10-10T15:44:18.133Z,18.63
2022-10-10T15:46:45.307Z,13.60
2022-10-10T15:49:13.450Z,11.88
2022-10-10T15:51:45.159Z,13.18
2022-10-10T15:54:12.431Z,15.00
2022-10-10T15:56:42.230Z,17.60
2022-10-10T15:59:09.490Z,17.40
2022-10-10T16:01:36.130Z,17.13
2022-10-10T16:04:04.592Z,14.65
2022-10-10T16:06:31.034Z,16.85
2022-10-10T16:09:23.411Z,17.48
2022-10-10T16:11:43.841Z,12.38
2022-10-10T16:14:10.695Z,17.17
2022-10-10T16:16:37.155Z,14.93
2022-10-10T16:19:03.695Z,19.13
2022-10-10T16:21:31.534Z,16.70
2022-10-10T16:23:58.307Z,17.15
2022-10-10T16:26:29.177Z,20.67
2022-10-10T16:28:56.762Z,22.35
2022-10-10T16:31:25.000Z,24.67
2022-10-10T16:33:52.174Z,26.60
2022-10-10T16:36:21.859Z,32.10
2022-10-10T16:38:49.984Z,31.20
2022-10-10T16:41:42.620Z,29.42
2022-10-10T16:44:04.562Z,29.40
2022-10-10T16:46:30.993Z,31.88
2022-10-10T16:48:59.515Z,34.90
2022-10-10T16:51:28.332Z,33.42
2022-10-10T16:53:55.530Z,33.95
2022-10-10T16:56:22.324Z,35.22
2022-10-10T16:58:50.616Z,34.63
2022-10-10T17:01:23.617Z,36.00
2022-10-10T17:03:51.340Z,40.22
2022-10-10T17:06:20.994Z,38.00
2022-10-10T17:08:49.455Z,37.83
2022-10-10T17:11:17.691Z,37.13
2022-10-10T17:13:44.874Z,37.85
2022-10-10T17:19:03.891Z,40.60
2022-10-10T17:21:31.354Z,40.22
2022-10-10T17:24:03.318Z,37.42
2022-10-10T17:26:29.694Z,33.80
2022-10-10T17:28:57.694Z,31.38
2022-10-10T17:31:25.274Z,31.85
2022-10-10T17:33:54.319Z,29.30
2022-10-10T17:36:23.747Z,29.73
2022-10-10T17:38:50.491Z,27.92
2022-10-10T17:41:18.432Z,28.63
2022-10-10T17:43:45.565Z,29.88
2022-10-10T17:46:35.750Z,29.02
2022-10-10T17:49:04.971Z,29.15
2022-10-10T17:51:31.388Z,30.50
2022-10-10T17:54:01.594Z,32.72
2022-10-10T17:58:54.700Z,31.98
2022-10-10T18:01:22.145Z,30.50
2022-10-10T18:03:49.012Z,32.83
2022-10-10T18:06:21.325Z,32.95
2022-10-10T18:08:51.939Z,40.95
2022-10-10T18:11:22.174Z,39.20
2022-10-10T18:16:18.670Z,34.70
2022-10-10T18:18:50.725Z,33.40
2022-10-10T18:21:18.927Z,32.42
2022-10-10T18:23:45.505Z,39.60
2022-10-10T18:26:15.398Z,33.88
2022-10-10T18:28:42.629Z,33.10
2022-10-10T18:31:17.934Z,36.97
2022-10-10T18:33:44.997Z,36.40
2022-10-10T18:36:14.494Z,40.58
2022-10-10T18:38:41.511Z,42.95
2022-10-10T18:41:13.571Z,41.42
2022-10-10T18:43:40.696Z,43.30
2022-10-10T18:46:09.037Z,37.33
2022-10-10T18:48:36.480Z,44.95
2022-10-10T18:51:11.834Z,37.20
2022-10-10T18:53:47.488Z,39.78
2022-10-10T18:56:16.557Z,42.63
2022-10-10T18:58:42.955Z,39.80
2022-10-10T19:01:12.779Z,93.18
2022-10-10T19:03:40.471Z,50.55
2022-10-10T19:06:09.737Z,49.03
2022-10-10T19:08:37.174Z,40.25
2022-10-10T19:11:05.956Z,44.60
2022-10-10T19:13:33.649Z,44.05
2022-10-10T19:16:04.780Z,41.03
2022-10-10T19:18:31.275Z,44.35
2022-10-10T19:21:04.415Z,42.38
2022-10-10T19:23:32.130Z,40.75
2022-10-10T19:26:02.268Z,48.45
2022-10-10T19:28:28.769Z,45.40
2022-10-10T19:30:55.771Z,43.58
2022-10-10T19:33:22.243Z,44.15
2022-10-10T19:35:51.423Z,46.97
2022-10-10T19:38:19.278Z,40.30
2022-10-10T19:40:47.115Z,42.53
2022-10-10T19:43:14.521Z,43.92
2022-10-10T19:45:42.565Z,46.33
2022-10-10T19:48:09.137Z,43.17
2022-10-10T19:50:40.696Z,37.83
2022-10-10T19:53:07.769Z,38.63
2022-10-10T19:55:34.238Z,45.92
2022-10-10T19:58:00.633Z,36.00
2022-10-10T20:00:27.357Z,37.80
2022-10-10T20:02:53.695Z,43.45
2022-10-10T20:05:20.847Z,37.78
2022-10-10T20:07:50.433Z,43.58
2022-10-10T20:10:17.568Z,55.63
2022-10-10T20:12:43.972Z,41.33
2022-10-10T20:15:10.779Z,47.58
2022-10-10T20:17:37.568Z,42.08
2022-10-10T20:20:05.312Z,43.28
2022-10-10T20:22:34.282Z,42.63
2022-10-10T20:25:01.329Z,46.30
2022-10-10T20:27:31.251Z,41.03
2022-10-10T20:29:58.239Z,39.17
2022-10-10T20:32:24.673Z,44.03
2022-10-10T20:34:51.040Z,42.65
2022-10-10T20:37:17.376Z,44.15
2022-10-10T20:39:43.738Z,37.08
2022-10-10T20:42:10.222Z,38.20
2022-10-10T20:44:36.809Z,41.70
2022-10-10T20:47:03.332Z,42.33
2022-10-10T20:49:29.841Z,46.30
2022-10-10T20:51:56.216Z,45.97
2022-10-10T20:54:24.617Z,40.50
2022-10-10T20:56:51.434Z,37.67
2022-10-10T20:59:19.410Z,39.10
2022-10-10T21:01:45.936Z,41.53
2022-10-10T21:04:14.039Z,37.90
2022-10-10T21:06:42.697Z,51.03
2022-10-10T21:09:10.886Z,36.35
2022-10-10T21:11:39.026Z,46.15
2022-10-10T21:14:06.545Z,40.47
2022-10-10T21:16:36.218Z,46.55
2022-10-10T21:19:03.489Z,41.58
2022-10-10T21:21:32.482Z,45.80
2022-10-10T21:23:59.491Z,39.92
2022-10-10T21:26:28.156Z,46.58
2022-10-10T21:28:55.838Z,42.55
2022-10-10T21:31:31.225Z,37.25
2022-10-10T21:33:59.949Z,36.90
2022-10-10T21:36:26.729Z,44.90
2022-10-10T21:38:55.890Z,41.90
2022-10-10T21:41:23.649Z,41.35
2022-10-10T21:43:54.599Z,45.28
2022-10-10T21:46:24.338Z,44.72
2022-10-10T21:48:53.806Z,35.58
2022-10-10T21:51:21.464Z,49.92
2022-10-10T21:53:48.459Z,40.80
2022-10-10T21:56:15.244Z,44.33
2022-10-10T21:58:43.764Z,41.80
2022-10-10T22:01:13.230Z,41.60
2022-10-10T22:03:39.635Z,37.38
2022-10-10T22:06:10.500Z,40.88
2022-10-10T22:08:38.155Z,36.75
2022-10-10T22:11:07.504Z,46.55
2022-10-10T22:13:33.990Z,39.60
2022-10-10T22:16:01.102Z,45.47
2022-10-10T22:18:27.664Z,44.50
2022-10-10T22:20:54.369Z,52.92
2022-10-10T22:23:21.282Z,48.30
2022-10-10T22:25:49.659Z,39.83
2022-10-10T22:28:16.865Z,41.67
2022-10-10T22:30:43.962Z,47.33
2022-10-10T22:33:10.687Z,47.30
2022-10-10T22:35:37.274Z,44.55
2022-10-10T22:38:04.172Z,47.08
2022-10-10T22:40:30.977Z,46.75
2022-10-10T22:42:57.864Z,42.97
2022-10-10T22:45:24.611Z,41.20
2022-10-10T22:47:51.061Z,47.50
2022-10-10T22:50:18.383Z,34.47
2022-10-10T22:52:45.096Z,39.15
2022-10-10T22:55:17.221Z,46.53
2022-10-10T22:57:44.742Z,42.53
2022-10-10T23:00:12.338Z,37.90
2022-10-10T23:02:39.051Z,42.58
2022-10-10T23:05:06.084Z,39.20
2022-10-10T23:07:32.778Z,41.65
2022-10-10T23:09:59.180Z,48.78
2022-10-10T23:12:25.556Z,48.17
2022-10-10T23:14:52.028Z,45.25
2022-10-10T23:17:18.457Z,39.42
2022-10-10T23:19:44.885Z,34.05
2022-10-10T23:22:12.789Z,36.00
2022-10-10T23:24:39.921Z,38.50
2022-10-10T23:27:06.377Z,36.90
2022-10-10T23:29:33.101Z,41.20
2022-10-10T23:31:59.599Z,38.70
2022-10-10T23:34:26.131Z,46.30
2022-10-10T23:36:52.804Z,39.70
2022-10-10T23:39:19.188Z,41.65
2022-10-10T23:41:45.674Z,45.45
2022-10-10T23:44:12.138Z,38.40
2022-10-10T23:46:38.780Z,33.00
2022-10-10T23:49:05.148Z,41.45
2022-10-10T23:51:32.150Z,41.90
2022-10-10T23:53:58.715Z,44.42
2022-10-10T23:56:25.226Z,40.35
2022-10-10T23:58:51.666Z,38.83
